sensor_id;sensor_type;location;lat;lon;timestamp;temperature;humidity
28548;DHT22;15750;49.600;8.746;2022-07-23T00:01:20;27.40;54.10
28548;DHT22;15750;49.600;8.746;2022-07-23T00:04:12;27.40;54.00
28548;DHT22;15750;49.600;8.746;2022-07-23T00:06:59;27.40;54.10
28548;DHT22;15750;49.600;8.746;2022-07-23T00:09:47;27.40;54.20
28548;DHT22;15750;49.600;8.746;2022-07-23T00:12:34;27.40;54.30
28548;DHT22;15750;49.600;8.746;2022-07-23T00:15:36;27.40;54.40
28548;DHT22;15750;49.600;8.746;2022-07-23T00:18:23;27.40;54.50
28548;DHT22;15750;49.600;8.746;2022-07-23T00:21:11;27.30;54.30
28548;DHT22;15750;49.600;8.746;2022-07-23T00:23:58;27.30;54.40
28548;DHT22;15750;49.600;8.746;2022-07-23T00:26:45;27.30;54.50
28548;DHT22;15750;49.600;8.746;2022-07-23T00:29:33;27.30;54.60
28548;DHT22;15750;49.600;8.746;2022-07-23T00:32:22;27.30;54.60
28548;DHT22;15750;49.600;8.746;2022-07-23T00:35:32;27.30;54.80
28548;DHT22;15750;49.600;8.746;2022-07-23T00:38:21;27.30;54.90
28548;DHT22;15750;49.600;8.746;2022-07-23T00:41:08;27.30;54.60
28548;DHT22;15750;49.600;8.746;2022-07-23T00:43:55;27.30;54.60
28548;DHT22;15750;49.600;8.746;2022-07-23T00:46:46;27.30;54.50
28548;DHT22;15750;49.600;8.746;2022-07-23T00:49:35;27.30;54.80
28548;DHT22;15750;49.600;8.746;2022-07-23T00:52:23;27.20;54.40
28548;DHT22;15750;49.600;8.746;2022-07-23T00:55:11;27.20;54.40
28548;DHT22;15750;49.600;8.746;2022-07-23T00:57:59;27.20;54.40
28548;DHT22;15750;49.600;8.746;2022-07-23T01:00:48;27.20;54.50
28548;DHT22;15750;49.600;8.746;2022-07-23T01:03:36;27.10;54.60
28548;DHT22;15750;49.600;8.746;2022-07-23T01:06:24;27.10;54.70
28548;DHT22;15750;49.600;8.746;2022-07-23T01:09:12;27.10;54.90
28548;DHT22;15750;49.600;8.746;2022-07-23T01:11:59;27.10;55.00
28548;DHT22;15750;49.600;8.746;2022-07-23T01:14:53;27.10;54.90
28548;DHT22;15750;49.600;8.746;2022-07-23T01:17:41;27.10;55.20
28548;DHT22;15750;49.600;8.746;2022-07-23T01:20:29;27.10;55.10
28548;DHT22;15750;49.600;8.746;2022-07-23T01:23:17;27.10;55.20
28548;DHT22;15750;49.600;8.746;2022-07-23T01:26:10;27.10;55.20
28548;DHT22;15750;49.600;8.746;2022-07-23T01:28:59;27.10;55.10
28548;DHT22;15750;49.600;8.746;2022-07-23T01:31:48;27.20;55.10
28548;DHT22;15750;49.600;8.746;2022-07-23T01:34:36;27.20;55.20
28548;DHT22;15750;49.600;8.746;2022-07-23T01:37:23;27.20;55.20
28548;DHT22;15750;49.600;8.746;2022-07-23T01:40:12;27.20;55.20
28548;DHT22;15750;49.600;8.746;2022-07-23T01:43:00;27.20;55.10
28548;DHT22;15750;49.600;8.746;2022-07-23T01:45:49;27.20;55.00
28548;DHT22;15750;49.600;8.746;2022-07-23T01:48:37;27.10;54.80
28548;DHT22;15750;49.600;8.746;2022-07-23T01:51:53;27.10;54.80
28548;DHT22;15750;49.600;8.746;2022-07-23T01:54:53;27.10;54.70
28548;DHT22;15750;49.600;8.746;2022-07-23T01:57:42;27.10;54.70
28548;DHT22;15750;49.600;8.746;2022-07-23T02:00:31;27.10;54.70
28548;DHT22;15750;49.600;8.746;2022-07-23T02:03:19;27.10;54.60
28548;DHT22;15750;49.600;8.746;2022-07-23T02:06:06;27.10;54.60
28548;DHT22;15750;49.600;8.746;2022-07-23T02:08:54;27.10;54.50
28548;DHT22;15750;49.600;8.746;2022-07-23T02:11:42;27.00;54.50
28548;DHT22;15750;49.600;8.746;2022-07-23T02:14:31;27.00;54.50
28548;DHT22;15750;49.600;8.746;2022-07-23T02:17:20;27.00;54.50
28548;DHT22;15750;49.600;8.746;2022-07-23T02:20:09;27.00;54.60
28548;DHT22;15750;49.600;8.746;2022-07-23T02:22:57;27.00;54.50
28548;DHT22;15750;49.600;8.746;2022-07-23T02:25:44;27.00;54.50
28548;DHT22;15750;49.600;8.746;2022-07-23T02:28:31;27.00;54.40
28548;DHT22;15750;49.600;8.746;2022-07-23T02:31:20;27.00;54.30
28548;DHT22;15750;49.600;8.746;2022-07-23T02:34:07;27.00;54.30
28548;DHT22;15750;49.600;8.746;2022-07-23T02:36:57;27.00;54.30
28548;DHT22;15750;49.600;8.746;2022-07-23T02:39:47;27.00;55.00
28548;DHT22;15750;49.600;8.746;2022-07-23T02:42:34;27.00;54.40
28548;DHT22;15750;49.600;8.746;2022-07-23T02:45:23;27.00;54.50
28548;DHT22;15750;49.600;8.746;2022-07-23T02:48:13;27.00;54.50
28548;DHT22;15750;49.600;8.746;2022-07-23T02:51:03;27.00;54.50
28548;DHT22;15750;49.600;8.746;2022-07-23T02:54:00;27.00;54.50
28548;DHT22;15750;49.600;8.746;2022-07-23T02:56:47;27.00;54.50
28548;DHT22;15750;49.600;8.746;2022-07-23T02:59:36;27.00;54.50
28548;DHT22;15750;49.600;8.746;2022-07-23T03:02:23;27.00;54.50
28548;DHT22;15750;49.600;8.746;2022-07-23T03:05:12;26.90;54.40
28548;DHT22;15750;49.600;8.746;2022-07-23T03:08:00;26.90;54.50
28548;DHT22;15750;49.600;8.746;2022-07-23T03:10:47;26.90;54.50
28548;DHT22;15750;49.600;8.746;2022-07-23T03:13:35;26.90;54.50
28548;DHT22;15750;49.600;8.746;2022-07-23T03:16:22;26.90;54.60
28548;DHT22;15750;49.600;8.746;2022-07-23T03:19:09;26.90;54.50
28548;DHT22;15750;49.600;8.746;2022-07-23T03:21:58;26.90;54.60
28548;DHT22;15750;49.600;8.746;2022-07-23T03:24:45;26.90;54.60
28548;DHT22;15750;49.600;8.746;2022-07-23T03:27:44;26.90;54.60
28548;DHT22;15750;49.600;8.746;2022-07-23T03:30:31;26.90;54.70
28548;DHT22;15750;49.600;8.746;2022-07-23T03:33:20;26.90;54.80
28548;DHT22;15750;49.600;8.746;2022-07-23T03:36:08;26.90;54.80
28548;DHT22;15750;49.600;8.746;2022-07-23T03:39:02;26.90;54.90
28548;DHT22;15750;49.600;8.746;2022-07-23T03:41:50;26.90;54.90
28548;DHT22;15750;49.600;8.746;2022-07-23T03:44:37;26.90;54.90
28548;DHT22;15750;49.600;8.746;2022-07-23T03:47:25;26.90;55.00
28548;DHT22;15750;49.600;8.746;2022-07-23T03:50:12;26.90;55.00
28548;DHT22;15750;49.600;8.746;2022-07-23T03:53:00;26.90;55.10
28548;DHT22;15750;49.600;8.746;2022-07-23T03:55:50;26.90;55.10
28548;DHT22;15750;49.600;8.746;2022-07-23T03:58:38;26.90;55.20
28548;DHT22;15750;49.600;8.746;2022-07-23T04:01:25;26.90;55.10
28548;DHT22;15750;49.600;8.746;2022-07-23T04:04:13;26.90;54.90
28548;DHT22;15750;49.600;8.746;2022-07-23T04:07:02;26.80;54.80
28548;DHT22;15750;49.600;8.746;2022-07-23T04:09:51;26.80;54.80
28548;DHT22;15750;49.600;8.746;2022-07-23T04:12:39;26.80;54.80
28548;DHT22;15750;49.600;8.746;2022-07-23T04:15:27;26.80;54.90
28548;DHT22;15750;49.600;8.746;2022-07-23T04:18:15;26.80;54.90
28548;DHT22;15750;49.600;8.746;2022-07-23T04:21:14;26.80;54.90
28548;DHT22;15750;49.600;8.746;2022-07-23T04:24:03;26.80;55.00
28548;DHT22;15750;49.600;8.746;2022-07-23T04:26:54;26.80;55.00
28548;DHT22;15750;49.600;8.746;2022-07-23T04:29:42;26.80;55.00
28548;DHT22;15750;49.600;8.746;2022-07-23T04:32:29;26.80;55.00
28548;DHT22;15750;49.600;8.746;2022-07-23T04:35:17;26.80;55.00
28548;DHT22;15750;49.600;8.746;2022-07-23T04:38:10;26.80;55.20
28548;DHT22;15750;49.600;8.746;2022-07-23T04:40:58;26.80;55.20
28548;DHT22;15750;49.600;8.746;2022-07-23T04:43:45;26.80;55.30
28548;DHT22;15750;49.600;8.746;2022-07-23T04:46:34;26.80;55.40
28548;DHT22;15750;49.600;8.746;2022-07-23T04:49:22;26.80;55.40
28548;DHT22;15750;49.600;8.746;2022-07-23T04:52:09;26.80;55.40
28548;DHT22;15750;49.600;8.746;2022-07-23T04:54:57;26.80;55.30
28548;DHT22;15750;49.600;8.746;2022-07-23T04:57:44;26.80;55.30
28548;DHT22;15750;49.600;8.746;2022-07-23T05:00:31;26.80;55.30
28548;DHT22;15750;49.600;8.746;2022-07-23T05:03:20;26.80;55.30
28548;DHT22;15750;49.600;8.746;2022-07-23T05:06:07;26.80;55.50
28548;DHT22;15750;49.600;8.746;2022-07-23T05:08:55;26.80;55.40
28548;DHT22;15750;49.600;8.746;2022-07-23T05:11:42;26.80;55.50
28548;DHT22;15750;49.600;8.746;2022-07-23T05:14:29;26.80;55.60
28548;DHT22;15750;49.600;8.746;2022-07-23T05:17:17;26.80;55.80
28548;DHT22;15750;49.600;8.746;2022-07-23T05:20:07;26.80;55.80
28548;DHT22;15750;49.600;8.746;2022-07-23T05:22:55;26.80;55.90
28548;DHT22;15750;49.600;8.746;2022-07-23T05:25:42;26.80;55.80
28548;DHT22;15750;49.600;8.746;2022-07-23T05:28:30;26.70;56.10
28548;DHT22;15750;49.600;8.746;2022-07-23T05:31:17;26.70;55.90
28548;DHT22;15750;49.600;8.746;2022-07-23T05:34:05;26.70;55.90
28548;DHT22;15750;49.600;8.746;2022-07-23T05:36:55;26.70;56.10
28548;DHT22;15750;49.600;8.746;2022-07-23T05:39:43;26.70;56.20
28548;DHT22;15750;49.600;8.746;2022-07-23T05:42:30;26.70;56.20
28548;DHT22;15750;49.600;8.746;2022-07-23T05:45:17;26.70;56.30
28548;DHT22;15750;49.600;8.746;2022-07-23T05:48:05;26.70;56.50
28548;DHT22;15750;49.600;8.746;2022-07-23T05:51:00;26.70;56.50
28548;DHT22;15750;49.600;8.746;2022-07-23T05:53:52;26.70;56.50
28548;DHT22;15750;49.600;8.746;2022-07-23T05:56:43;26.70;56.60
28548;DHT22;15750;49.600;8.746;2022-07-23T05:59:30;26.70;56.50
28548;DHT22;15750;49.600;8.746;2022-07-23T06:02:18;26.70;56.60
28548;DHT22;15750;49.600;8.746;2022-07-23T06:05:06;26.70;56.60
28548;DHT22;15750;49.600;8.746;2022-07-23T06:07:54;26.60;56.70
28548;DHT22;15750;49.600;8.746;2022-07-23T06:10:44;26.60;56.80
28548;DHT22;15750;49.600;8.746;2022-07-23T06:13:31;26.60;56.90
28548;DHT22;15750;49.600;8.746;2022-07-23T06:16:19;26.60;56.90
28548;DHT22;15750;49.600;8.746;2022-07-23T06:19:06;26.60;56.90
28548;DHT22;15750;49.600;8.746;2022-07-23T06:21:53;26.60;56.90
28548;DHT22;15750;49.600;8.746;2022-07-23T06:24:40;26.60;56.90
28548;DHT22;15750;49.600;8.746;2022-07-23T06:27:29;26.60;57.00
28548;DHT22;15750;49.600;8.746;2022-07-23T06:30:16;26.60;57.30
28548;DHT22;15750;49.600;8.746;2022-07-23T06:33:04;26.60;57.40
28548;DHT22;15750;49.600;8.746;2022-07-23T06:35:52;26.60;57.50
28548;DHT22;15750;49.600;8.746;2022-07-23T06:38:39;26.60;57.50
28548;DHT22;15750;49.600;8.746;2022-07-23T06:41:28;26.60;57.60
28548;DHT22;15750;49.600;8.746;2022-07-23T06:44:18;26.60;57.50
28548;DHT22;15750;49.600;8.746;2022-07-23T06:47:07;26.60;57.80
28548;DHT22;15750;49.600;8.746;2022-07-23T06:49:54;26.60;57.60
28548;DHT22;15750;49.600;8.746;2022-07-23T06:52:43;26.60;57.60
28548;DHT22;15750;49.600;8.746;2022-07-23T06:55:30;26.60;57.70
28548;DHT22;15750;49.600;8.746;2022-07-23T06:58:18;26.60;57.90
28548;DHT22;15750;49.600;8.746;2022-07-23T07:01:07;26.60;58.10
28548;DHT22;15750;49.600;8.746;2022-07-23T07:03:55;26.60;58.20
28548;DHT22;15750;49.600;8.746;2022-07-23T07:06:42;26.70;58.20
28548;DHT22;15750;49.600;8.746;2022-07-23T07:09:29;26.70;58.30
28548;DHT22;15750;49.600;8.746;2022-07-23T07:12:17;26.70;58.50
28548;DHT22;15750;49.600;8.746;2022-07-23T07:15:05;26.70;58.50
28548;DHT22;15750;49.600;8.746;2022-07-23T07:17:54;26.70;58.20
28548;DHT22;15750;49.600;8.746;2022-07-23T07:20:41;26.70;58.50
28548;DHT22;15750;49.600;8.746;2022-07-23T07:23:28;26.80;58.40
28548;DHT22;15750;49.600;8.746;2022-07-23T07:26:16;26.80;58.40
28548;DHT22;15750;49.600;8.746;2022-07-23T07:29:03;26.80;58.40
28548;DHT22;15750;49.600;8.746;2022-07-23T07:31:51;26.80;58.40
28548;DHT22;15750;49.600;8.746;2022-07-23T07:34:40;26.80;58.30
28548;DHT22;15750;49.600;8.746;2022-07-23T07:37:27;26.80;58.40
28548;DHT22;15750;49.600;8.746;2022-07-23T07:40:15;26.80;58.30
28548;DHT22;15750;49.600;8.746;2022-07-23T07:43:02;26.80;58.30
28548;DHT22;15750;49.600;8.746;2022-07-23T07:45:49;26.80;58.40
28548;DHT22;15750;49.600;8.746;2022-07-23T07:48:37;26.80;58.50
28548;DHT22;15750;49.600;8.746;2022-07-23T07:51:26;26.80;58.60
28548;DHT22;15750;49.600;8.746;2022-07-23T07:54:15;26.80;58.70
28548;DHT22;15750;49.600;8.746;2022-07-23T07:57:02;26.80;58.50
28548;DHT22;15750;49.600;8.746;2022-07-23T07:59:52;26.80;58.50
28548;DHT22;15750;49.600;8.746;2022-07-23T08:02:42;26.80;58.50
28548;DHT22;15750;49.600;8.746;2022-07-23T08:05:30;26.80;58.50
28548;DHT22;15750;49.600;8.746;2022-07-23T08:08:19;26.80;58.50
28548;DHT22;15750;49.600;8.746;2022-07-23T08:11:07;26.80;58.70
28548;DHT22;15750;49.600;8.746;2022-07-23T08:13:54;26.90;58.80
28548;DHT22;15750;49.600;8.746;2022-07-23T08:16:42;26.90;58.80
28548;DHT22;15750;49.600;8.746;2022-07-23T08:19:49;26.90;59.50
28548;DHT22;15750;49.600;8.746;2022-07-23T08:22:44;26.90;59.00
28548;DHT22;15750;49.600;8.746;2022-07-23T08:25:34;26.90;59.30
28548;DHT22;15750;49.600;8.746;2022-07-23T08:28:23;27.00;59.30
28548;DHT22;15750;49.600;8.746;2022-07-23T08:31:10;27.00;59.10
28548;DHT22;15750;49.600;8.746;2022-07-23T08:33:58;27.00;59.00
28548;DHT22;15750;49.600;8.746;2022-07-23T08:36:46;27.00;59.00
28548;DHT22;15750;49.600;8.746;2022-07-23T08:39:33;27.00;58.80
28548;DHT22;15750;49.600;8.746;2022-07-23T08:42:22;27.00;58.90
28548;DHT22;15750;49.600;8.746;2022-07-23T08:45:09;27.00;58.90
28548;DHT22;15750;49.600;8.746;2022-07-23T08:47:58;27.10;59.00
28548;DHT22;15750;49.600;8.746;2022-07-23T08:50:52;27.10;59.20
28548;DHT22;15750;49.600;8.746;2022-07-23T08:53:42;27.10;59.20
28548;DHT22;15750;49.600;8.746;2022-07-23T08:56:31;27.10;59.10
28548;DHT22;15750;49.600;8.746;2022-07-23T08:59:19;27.10;59.00
28548;DHT22;15750;49.600;8.746;2022-07-23T09:02:07;27.20;58.90
28548;DHT22;15750;49.600;8.746;2022-07-23T09:04:54;27.20;58.80
28548;DHT22;15750;49.600;8.746;2022-07-23T09:08:06;27.20;59.00
28548;DHT22;15750;49.600;8.746;2022-07-23T09:10:56;27.20;58.80
28548;DHT22;15750;49.600;8.746;2022-07-23T09:13:47;27.20;58.60
28548;DHT22;15750;49.600;8.746;2022-07-23T09:16:36;27.30;58.80
28548;DHT22;15750;49.600;8.746;2022-07-23T09:19:27;27.30;58.60
28548;DHT22;15750;49.600;8.746;2022-07-23T09:22:19;27.30;58.50
28548;DHT22;15750;49.600;8.746;2022-07-23T09:25:14;27.30;58.70
28548;DHT22;15750;49.600;8.746;2022-07-23T09:28:02;27.40;58.40
28548;DHT22;15750;49.600;8.746;2022-07-23T09:30:53;27.40;58.30
28548;DHT22;15750;49.600;8.746;2022-07-23T09:33:41;27.40;57.90
28548;DHT22;15750;49.600;8.746;2022-07-23T09:36:29;27.40;57.60
28548;DHT22;15750;49.600;8.746;2022-07-23T09:39:24;27.50;57.90
28548;DHT22;15750;49.600;8.746;2022-07-23T09:42:15;27.50;57.40
28548;DHT22;15750;49.600;8.746;2022-07-23T09:45:04;27.50;57.50
28548;DHT22;15750;49.600;8.746;2022-07-23T09:48:10;27.50;57.70
28548;DHT22;15750;49.600;8.746;2022-07-23T09:51:03;27.50;57.80
28548;DHT22;15750;49.600;8.746;2022-07-23T09:53:51;27.50;57.70
28548;DHT22;15750;49.600;8.746;2022-07-23T09:56:39;27.60;57.70
28548;DHT22;15750;49.600;8.746;2022-07-23T09:59:29;27.60;57.70
28548;DHT22;15750;49.600;8.746;2022-07-23T10:02:19;27.60;57.90
28548;DHT22;15750;49.600;8.746;2022-07-23T10:05:38;27.60;57.90
28548;DHT22;15750;49.600;8.746;2022-07-23T10:08:58;27.60;57.80
28548;DHT22;15750;49.600;8.746;2022-07-23T10:12:12;27.70;57.90
28548;DHT22;15750;49.600;8.746;2022-07-23T10:15:20;27.70;57.50
28548;DHT22;15750;49.600;8.746;2022-07-23T10:18:08;27.70;57.60
28548;DHT22;15750;49.600;8.746;2022-07-23T10:20:57;27.80;57.70
28548;DHT22;15750;49.600;8.746;2022-07-23T10:23:50;27.80;57.70
28548;DHT22;15750;49.600;8.746;2022-07-23T10:26:58;27.80;57.60
28548;DHT22;15750;49.600;8.746;2022-07-23T10:29:58;27.90;57.70
28548;DHT22;15750;49.600;8.746;2022-07-23T10:32:57;27.90;57.80
28548;DHT22;15750;49.600;8.746;2022-07-23T10:35:58;28.00;57.80
28548;DHT22;15750;49.600;8.746;2022-07-23T10:38:54;28.00;57.90
28548;DHT22;15750;49.600;8.746;2022-07-23T10:41:44;28.10;57.80
28548;DHT22;15750;49.600;8.746;2022-07-23T10:44:38;28.10;57.70
28548;DHT22;15750;49.600;8.746;2022-07-23T10:47:28;28.10;57.20
28548;DHT22;15750;49.600;8.746;2022-07-23T10:50:31;28.20;57.40
28548;DHT22;15750;49.600;8.746;2022-07-23T10:53:21;28.20;57.00
28548;DHT22;15750;49.600;8.746;2022-07-23T10:56:08;28.30;57.20
28548;DHT22;15750;49.600;8.746;2022-07-23T10:59:04;28.30;56.90
28548;DHT22;15750;49.600;8.746;2022-07-23T11:01:53;28.30;56.50
28548;DHT22;15750;49.600;8.746;2022-07-23T11:04:50;28.40;56.90
28548;DHT22;15750;49.600;8.746;2022-07-23T11:11:11;28.50;56.60
28548;DHT22;15750;49.600;8.746;2022-07-23T11:13:59;28.50;56.30
28548;DHT22;15750;49.600;8.746;2022-07-23T11:16:47;28.50;56.40
28548;DHT22;15750;49.600;8.746;2022-07-23T11:23:17;28.60;55.60
28548;DHT22;15750;49.600;8.746;2022-07-23T11:26:05;28.60;55.50
28548;DHT22;15750;49.600;8.746;2022-07-23T11:28:52;28.60;55.60
28548;DHT22;15750;49.600;8.746;2022-07-23T11:31:51;28.60;55.40
28548;DHT22;15750;49.600;8.746;2022-07-23T11:34:40;28.60;54.70
28548;DHT22;15750;49.600;8.746;2022-07-23T11:37:36;28.60;55.30
28548;DHT22;15750;49.600;8.746;2022-07-23T11:40:26;28.50;54.90
28548;DHT22;15750;49.600;8.746;2022-07-23T11:43:14;28.60;55.10
28548;DHT22;15750;49.600;8.746;2022-07-23T11:46:02;28.50;55.00
28548;DHT22;15750;49.600;8.746;2022-07-23T11:49:01;28.60;55.00
28548;DHT22;15750;49.600;8.746;2022-07-23T11:52:02;28.50;54.50
28548;DHT22;15750;49.600;8.746;2022-07-23T11:54:53;28.50;54.60
28548;DHT22;15750;49.600;8.746;2022-07-23T11:57:43;28.50;54.60
28548;DHT22;15750;49.600;8.746;2022-07-23T12:00:31;28.50;54.60
28548;DHT22;15750;49.600;8.746;2022-07-23T12:03:25;28.50;54.70
28548;DHT22;15750;49.600;8.746;2022-07-23T12:06:12;28.50;54.30
28548;DHT22;15750;49.600;8.746;2022-07-23T12:09:00;28.50;54.30
28548;DHT22;15750;49.600;8.746;2022-07-23T12:11:57;28.50;54.50
28548;DHT22;15750;49.600;8.746;2022-07-23T12:14:50;28.50;53.90
28548;DHT22;15750;49.600;8.746;2022-07-23T12:17:39;28.50;54.10
28548;DHT22;15750;49.600;8.746;2022-07-23T12:20:36;28.50;54.80
28548;DHT22;15750;49.600;8.746;2022-07-23T12:23:25;28.50;54.30
28548;DHT22;15750;49.600;8.746;2022-07-23T12:26:13;28.50;53.80
28548;DHT22;15750;49.600;8.746;2022-07-23T12:29:00;28.50;54.20
28548;DHT22;15750;49.600;8.746;2022-07-23T12:31:49;28.50;53.80
28548;DHT22;15750;49.600;8.746;2022-07-23T12:34:36;28.50;53.90
28548;DHT22;15750;49.600;8.746;2022-07-23T12:37:27;28.50;54.00
28548;DHT22;15750;49.600;8.746;2022-07-23T12:40:37;28.50;54.10
28548;DHT22;15750;49.600;8.746;2022-07-23T12:43:30;28.50;54.10
28548;DHT22;15750;49.600;8.746;2022-07-23T12:46:19;28.50;54.00
28548;DHT22;15750;49.600;8.746;2022-07-23T12:49:08;28.50;54.00
28548;DHT22;15750;49.600;8.746;2022-07-23T12:51:56;28.50;53.80
28548;DHT22;15750;49.600;8.746;2022-07-23T12:54:43;28.50;53.80
28548;DHT22;15750;49.600;8.746;2022-07-23T12:57:45;28.50;54.20
28548;DHT22;15750;49.600;8.746;2022-07-23T13:00:33;28.50;53.40
28548;DHT22;15750;49.600;8.746;2022-07-23T13:03:38;28.50;53.50
28548;DHT22;15750;49.600;8.746;2022-07-23T13:06:31;28.50;53.70
28548;DHT22;15750;49.600;8.746;2022-07-23T13:09:21;28.50;53.70
28548;DHT22;15750;49.600;8.746;2022-07-23T13:12:10;28.50;53.70
28548;DHT22;15750;49.600;8.746;2022-07-23T13:14:58;28.60;53.50
28548;DHT22;15750;49.600;8.746;2022-07-23T13:17:45;28.60;53.60
28548;DHT22;15750;49.600;8.746;2022-07-23T13:20:34;28.60;53.70
28548;DHT22;15750;49.600;8.746;2022-07-23T13:23:25;28.60;53.60
28548;DHT22;15750;49.600;8.746;2022-07-23T13:26:14;28.60;53.40
28548;DHT22;15750;49.600;8.746;2022-07-23T13:29:03;28.60;53.50
28548;DHT22;15750;49.600;8.746;2022-07-23T13:31:56;28.60;53.40
28548;DHT22;15750;49.600;8.746;2022-07-23T13:34:44;28.60;53.20
28548;DHT22;15750;49.600;8.746;2022-07-23T13:37:35;28.60;52.80
28548;DHT22;15750;49.600;8.746;2022-07-23T13:40:24;28.60;52.90
28548;DHT22;15750;49.600;8.746;2022-07-23T13:43:19;28.60;52.80
28548;DHT22;15750;49.600;8.746;2022-07-23T13:46:11;28.60;52.60
28548;DHT22;15750;49.600;8.746;2022-07-23T13:49:05;28.60;52.50
28548;DHT22;15750;49.600;8.746;2022-07-23T13:51:54;28.60;53.00
28548;DHT22;15750;49.600;8.746;2022-07-23T13:54:44;28.60;53.00
28548;DHT22;15750;49.600;8.746;2022-07-23T13:57:32;28.60;53.10
28548;DHT22;15750;49.600;8.746;2022-07-23T14:00:20;28.70;52.90
28548;DHT22;15750;49.600;8.746;2022-07-23T14:03:27;28.60;52.90
28548;DHT22;15750;49.600;8.746;2022-07-23T14:06:15;28.70;53.10
28548;DHT22;15750;49.600;8.746;2022-07-23T14:09:02;28.70;53.10
28548;DHT22;15750;49.600;8.746;2022-07-23T14:11:53;28.70;53.10
28548;DHT22;15750;49.600;8.746;2022-07-23T14:14:42;28.70;53.00
28548;DHT22;15750;49.600;8.746;2022-07-23T14:17:30;28.70;52.70
28548;DHT22;15750;49.600;8.746;2022-07-23T14:20:18;28.60;52.40
28548;DHT22;15750;49.600;8.746;2022-07-23T14:23:09;28.70;52.50
28548;DHT22;15750;49.600;8.746;2022-07-23T14:25:58;28.70;52.70
28548;DHT22;15750;49.600;8.746;2022-07-23T14:28:50;28.60;52.50
28548;DHT22;15750;49.600;8.746;2022-07-23T14:31:39;28.70;53.20
28548;DHT22;15750;49.600;8.746;2022-07-23T14:34:26;28.60;52.50
28548;DHT22;15750;49.600;8.746;2022-07-23T14:37:14;28.60;52.10
28548;DHT22;15750;49.600;8.746;2022-07-23T14:40:03;28.60;52.30
28548;DHT22;15750;49.600;8.746;2022-07-23T14:42:53;28.60;52.00
28548;DHT22;15750;49.600;8.746;2022-07-23T14:45:40;28.60;51.80
28548;DHT22;15750;49.600;8.746;2022-07-23T14:48:32;28.70;52.00
28548;DHT22;15750;49.600;8.746;2022-07-23T14:51:19;28.70;52.10
28548;DHT22;15750;49.600;8.746;2022-07-23T14:54:08;28.70;52.10
28548;DHT22;15750;49.600;8.746;2022-07-23T14:56:57;28.70;52.00
28548;DHT22;15750;49.600;8.746;2022-07-23T14:59:45;28.70;52.10
28548;DHT22;15750;49.600;8.746;2022-07-23T15:02:32;28.70;52.10
28548;DHT22;15750;49.600;8.746;2022-07-23T15:05:21;28.70;52.10
28548;DHT22;15750;49.600;8.746;2022-07-23T15:08:09;28.70;51.80
28548;DHT22;15750;49.600;8.746;2022-07-23T15:10:57;28.70;51.80
28548;DHT22;15750;49.600;8.746;2022-07-23T15:13:45;28.70;51.80
28548;DHT22;15750;49.600;8.746;2022-07-23T15:16:33;28.70;51.60
28548;DHT22;15750;49.600;8.746;2022-07-23T15:19:21;28.80;51.70
28548;DHT22;15750;49.600;8.746;2022-07-23T15:22:09;28.80;51.60
28548;DHT22;15750;49.600;8.746;2022-07-23T15:24:57;28.80;51.40
28548;DHT22;15750;49.600;8.746;2022-07-23T15:27:45;28.70;51.50
28548;DHT22;15750;49.600;8.746;2022-07-23T15:30:33;28.70;51.50
28548;DHT22;15750;49.600;8.746;2022-07-23T15:33:22;28.70;50.90
28548;DHT22;15750;49.600;8.746;2022-07-23T15:36:10;28.70;51.00
28548;DHT22;15750;49.600;8.746;2022-07-23T15:38:59;28.70;50.80
28548;DHT22;15750;49.600;8.746;2022-07-23T15:41:48;28.70;50.90
28548;DHT22;15750;49.600;8.746;2022-07-23T15:44:35;28.70;50.90
28548;DHT22;15750;49.600;8.746;2022-07-23T15:47:24;28.70;50.80
28548;DHT22;15750;49.600;8.746;2022-07-23T15:50:11;28.70;50.80
28548;DHT22;15750;49.600;8.746;2022-07-23T15:52:58;28.70;50.90
28548;DHT22;15750;49.600;8.746;2022-07-23T15:55:49;28.70;50.80
28548;DHT22;15750;49.600;8.746;2022-07-23T15:58:37;28.60;50.70
28548;DHT22;15750;49.600;8.746;2022-07-23T16:01:25;28.60;50.80
28548;DHT22;15750;49.600;8.746;2022-07-23T16:04:15;28.60;50.80
28548;DHT22;15750;49.600;8.746;2022-07-23T16:07:02;28.60;50.80
28548;DHT22;15750;49.600;8.746;2022-07-23T16:09:49;28.60;50.80
28548;DHT22;15750;49.600;8.746;2022-07-23T16:12:39;28.60;50.80
28548;DHT22;15750;49.600;8.746;2022-07-23T16:15:26;28.60;50.90
28548;DHT22;15750;49.600;8.746;2022-07-23T16:18:14;28.60;50.80
28548;DHT22;15750;49.600;8.746;2022-07-23T16:21:02;28.60;50.00
28548;DHT22;15750;49.600;8.746;2022-07-23T16:23:59;28.60;50.40
28548;DHT22;15750;49.600;8.746;2022-07-23T16:26:46;28.60;50.60
28548;DHT22;15750;49.600;8.746;2022-07-23T16:29:35;28.60;50.50
28548;DHT22;15750;49.600;8.746;2022-07-23T16:32:23;28.60;50.50
28548;DHT22;15750;49.600;8.746;2022-07-23T16:35:10;28.60;50.80
28548;DHT22;15750;49.600;8.746;2022-07-23T16:37:59;28.60;50.80
28548;DHT22;15750;49.600;8.746;2022-07-23T16:40:47;28.60;51.00
28548;DHT22;15750;49.600;8.746;2022-07-23T16:43:36;28.60;50.80
28548;DHT22;15750;49.600;8.746;2022-07-23T16:46:25;28.50;50.70
28548;DHT22;15750;49.600;8.746;2022-07-23T16:49:14;28.60;50.80
28548;DHT22;15750;49.600;8.746;2022-07-23T16:52:01;28.60;50.90
28548;DHT22;15750;49.600;8.746;2022-07-23T16:54:50;28.60;50.80
28548;DHT22;15750;49.600;8.746;2022-07-23T16:57:37;28.60;50.70
28548;DHT22;15750;49.600;8.746;2022-07-23T17:00:25;28.60;50.70
28548;DHT22;15750;49.600;8.746;2022-07-23T17:03:13;28.60;50.70
28548;DHT22;15750;49.600;8.746;2022-07-23T17:06:01;28.60;50.80
28548;DHT22;15750;49.600;8.746;2022-07-23T17:08:48;28.50;50.70
28548;DHT22;15750;49.600;8.746;2022-07-23T17:11:36;28.50;50.70
28548;DHT22;15750;49.600;8.746;2022-07-23T17:14:23;28.60;50.60
28548;DHT22;15750;49.600;8.746;2022-07-23T17:17:10;28.50;50.60
28548;DHT22;15750;49.600;8.746;2022-07-23T17:20:03;28.50;50.60
28548;DHT22;15750;49.600;8.746;2022-07-23T17:22:52;28.50;50.50
28548;DHT22;15750;49.600;8.746;2022-07-23T17:25:40;28.50;50.50
28548;DHT22;15750;49.600;8.746;2022-07-23T17:28:27;28.50;50.40
28548;DHT22;15750;49.600;8.746;2022-07-23T17:31:15;28.50;50.40
28548;DHT22;15750;49.600;8.746;2022-07-23T17:34:02;28.50;51.00
28548;DHT22;15750;49.600;8.746;2022-07-23T17:36:51;28.50;50.40
28548;DHT22;15750;49.600;8.746;2022-07-23T17:39:38;28.50;50.10
28548;DHT22;15750;49.600;8.746;2022-07-23T17:42:25;28.50;50.20
28548;DHT22;15750;49.600;8.746;2022-07-23T17:45:12;28.50;50.10
28548;DHT22;15750;49.600;8.746;2022-07-23T17:48:01;28.50;50.10
28548;DHT22;15750;49.600;8.746;2022-07-23T17:50:48;28.50;50.00
28548;DHT22;15750;49.600;8.746;2022-07-23T17:53:41;28.50;50.10
28548;DHT22;15750;49.600;8.746;2022-07-23T17:56:28;28.50;50.00
28548;DHT22;15750;49.600;8.746;2022-07-23T17:59:15;28.50;49.90